Time,TemperatureF,DewpointF,PressureIn,WindDirection,WindDirectionDegrees,WindSpeedMPH,WindSpeedGustMPH,Humidity,HourlyPrecipIn,Conditions,Clouds,dailyrainin,SoftwareType,DateUTC
2013-12-05 00:05:00,46.0,42.0,29.12,WSW,242,2.7,5.6,86,0.00,,,0.00,WSDL version 420,2013-12-05 05:05:00,
2013-12-05 00:07:00,46.2,42.0,29.12,WSW,248,3.2,4.0,84,0.00,,,0.00,WSDL version 420,2013-12-05 05:07:00,
2013-12-05 00:11:00,46.3,41.7,29.12,West,270,2.7,4.0,83,0.00,,,0.00,WSDL version 420,2013-12-05 05:11:00,
2013-12-05 00:13:00,46.5,41.7,29.12,WSW,248,2.8,4.3,83,0.00,,,0.00,WSDL version 420,2013-12-05 05:13:00,
2013-12-05 00:18:00,46.8,41.6,29.12,WSW,248,2.9,4.3,82,0.00,,,0.00,WSDL version 420,2013-12-05 05:18:00,
2013-12-05 00:25:00,47.1,41.6,-100.00,WSW,252,2.9,3.6,81,0.00,,,0.00,WSDL version 420,2013-12-05 05:25:00,
2013-12-05 00:29:00,47.2,41.5,-100.00,SSE,158,3.6,6.0,80,0.00,,,0.00,WSDL version 420,2013-12-05 05:29:00,
2013-12-05 00:35:00,47.4,41.5,-100.00,SW,225,4.0,6.0,80,-99.99,,,-99.99,WSDL version 420,2013-12-05 05:35:00,
2013-12-05 00:39:00,47.7,41.5,29.12,WSW,243,3.3,4.7,79,0.00,,,0.00,WSDL version 420,2013-12-05 05:39:00,
2013-12-05 00:46:00,47.7,41.1,29.12,SW,219,2.9,4.7,78,-99.99,,,-99.99,WSDL version 420,2013-12-05 05:46:00,
2013-12-05 00:51:00,47.7,41.1,29.09,North,-999,-999.0,-999.0,78,0.00,,,0.00,WSDL version 420,2013-12-05 05:51:00,
2013-12-05 00:57:00,47.8,41.3,29.09,West,263,2.5,4.0,78,0.00,,,0.00,WSDL version 420,2013-12-05 05:57:00,
2013-12-05 01:03:00,48.1,41.4,29.09,WSW,252,3.7,4.3,77,0.00,,,0.00,WSDL version 420,2013-12-05 06:03:00,
2013-12-05 01:12:00,48.4,41.2,29.12,WSW,248,3.1,5.6,76,0.00,,,0.00,WSDL version 420,2013-12-05 06:12:00,
2013-12-05 01:18:00,48.4,41.2,29.12,SW,236,3.2,5.6,76,0.00,,,0.00,WSDL version 420,2013-12-05 06:18:00,
2013-12-05 01:24:00,48.6,41.3,29.06,WSW,239,4.9,5.8,76,0.00,,,0.00,WSDL version 420,2013-12-05 06:24:00,
2013-12-05 01:29:00,48.6,41.3,29.06,SW,236,2.9,5.8,76,-99.99,,,-99.99,WSDL version 420,2013-12-05 06:29:00,
2013-12-05 01:35:00,48.6,41.0,-100.00,WSW,243,2.9,4.0,75,0.00,,,0.00,WSDL version 420,2013-12-05 06:35:00,
2013-12-05 01:47:00,48.7,41.5,29.06,West,259,3.2,5.6,76,0.00,,,0.00,WSDL version 420,2013-12-05 06:47:00,
2013-12-05 01:52:00,48.7,41.5,-100.00,SW,221,3.2,5.6,76,0.00,,,0.00,WSDL version 420,2013-12-05 06:52:00,
2013-12-05 01:58:00,48.9,41.7,29.09,West,263,3.5,5.8,76,0.00,,,0.00,WSDL version 420,2013-12-05 06:58:00,
2013-12-05 02:04:00,48.9,41.4,29.09,WSW,248,3.4,6.0,75,-99.99,,,-99.99,WSDL version 420,2013-12-05 07:04:00,
2013-12-05 02:09:00,48.9,41.4,-100.00,WSW,257,3.9,6.0,75,0.00,,,0.00,WSDL version 420,2013-12-05 07:09:00,
2013-12-05 02:15:00,48.9,41.4,29.06,SW,214,3.4,5.8,75,-99.99,,,-99.99,WSDL version 420,2013-12-05 07:15:00,
2013-12-05 02:21:00,49.1,41.5,29.06,WSW,248,3.2,6.3,75,0.00,,,0.00,WSDL version 420,2013-12-05 07:21:00,
2013-12-05 02:27:00,49.1,41.5,-100.00,SW,236,3.2,6.3,75,0.00,,,0.00,WSDL version 420,2013-12-05 07:27:00,
2013-12-05 02:33:00,49.3,41.7,29.09,SW,236,3.9,5.8,75,0.00,,,0.00,WSDL version 420,2013-12-05 07:33:00,
2013-12-05 02:39:00,49.3,41.7,29.09,WSW,248,3.1,6.5,75,0.00,,,0.00,WSDL version 420,2013-12-05 07:39:00,
2013-12-05 02:45:00,49.5,41.9,29.09,WSW,248,3.2,6.5,75,0.00,,,0.00,WSDL version 420,2013-12-05 07:45:00,
2013-12-05 02:51:00,49.6,42.0,29.09,SW,230,3.0,5.4,75,0.00,,,0.00,WSDL version 420,2013-12-05 07:51:00,
2013-12-05 02:57:00,49.6,42.1,29.09,WSW,238,3.6,5.4,75,-99.99,,,-99.99,WSDL version 420,2013-12-05 07:57:00,
2013-12-05 03:03:00,49.6,42.1,-100.00,SW,233,2.5,6.0,75,0.00,,,0.00,WSDL version 420,2013-12-05 08:03:00,
2013-12-05 03:08:00,49.6,42.1,-100.00,WSW,248,2.5,5.8,75,0.00,,,0.00,WSDL version 420,2013-12-05 08:08:00,
2013-12-05 03:15:00,49.6,42.1,29.06,SW,214,2.7,5.8,75,0.00,,,0.00,WSDL version 420,2013-12-05 08:15:00,
2013-12-05 03:20:00,49.6,42.1,-100.00,SW,225,2.0,3.1,75,0.00,,,0.00,WSDL version 420,2013-12-05 08:20:00,
2013-12-05 03:27:00,49.6,42.2,29.09,WSW,248,3.1,3.8,76,0.00,,,0.00,WSDL version 420,2013-12-05 08:27:00,
2013-12-05 03:38:00,49.8,42.6,29.06,SW,236,2.5,4.0,76,-99.99,,,-99.99,WSDL version 420,2013-12-05 08:38:00,
2013-12-05 03:44:00,49.8,42.2,29.06,SW,225,2.1,4.0,75,0.00,,,0.00,WSDL version 420,2013-12-05 08:44:00,
2013-12-05 03:49:00,49.8,42.2,29.06,SSW,210,2.4,3.8,75,0.00,,,0.00,WSDL version 420,2013-12-05 08:49:00,
2013-12-05 03:57:00,49.9,42.5,29.06,WSW,248,2.3,2.9,75,-99.99,,,-99.99,WSDL version 420,2013-12-05 08:57:00,
2013-12-05 04:03:00,50.0,42.7,29.06,SW,225,2.9,3.4,75,0.00,,,0.00,WSDL version 420,2013-12-05 09:03:00,
2013-12-05 04:14:00,50.0,42.4,29.06,SW,218,2.9,4.7,75,0.00,,,0.00,WSDL version 420,2013-12-05 09:14:00,
2013-12-05 04:20:00,50.0,42.7,29.06,WSW,239,2.3,4.7,76,0.00,,,0.00,WSDL version 420,2013-12-05 09:20:00,
2013-12-05 04:27:00,50.0,42.6,-100.00,WSW,243,2.8,4.9,75,0.00,,,0.00,WSDL version 420,2013-12-05 09:27:00,
2013-12-05 04:35:00,50.0,42.7,29.03,WSW,243,3.2,5.8,76,0.00,,,0.00,WSDL version 420,2013-12-05 09:35:00,
2013-12-05 04:45:00,50.0,42.7,-100.00,SW,225,2.6,5.6,76,0.00,,,0.00,WSDL version 420,2013-12-05 09:45:00,
2013-12-05 04:53:00,50.0,42.7,29.03,SW,230,3.1,5.8,76,0.00,,,0.00,WSDL version 420,2013-12-05 09:53:00,
2013-12-05 04:59:00,50.0,42.7,29.03,WSW,248,3.3,6.0,76,0.00,,,0.00,WSDL version 420,2013-12-05 09:59:00,
2013-12-05 05:05:00,50.0,42.9,29.03,WSW,242,2.9,6.0,77,0.00,,,0.00,WSDL version 420,2013-12-05 10:05:00,
2013-12-05 05:11:00,49.9,43.0,29.03,WSW,248,3.6,5.4,77,0.00,,,0.00,WSDL version 420,2013-12-05 10:11:00,
2013-12-05 05:18:00,50.0,43.1,-100.00,WSW,244,2.5,4.5,77,0.00,,,0.00,WSDL version 420,2013-12-05 10:18:00,
2013-12-05 05:24:00,50.0,43.1,29.06,SW,225,2.7,6.3,77,0.00,,,0.00,WSDL version 420,2013-12-05 10:24:00,
2013-12-05 05:30:00,50.2,43.3,29.06,WSW,240,2.5,4.7,77,0.00,,,0.00,WSDL version 420,2013-12-05 10:30:00,
2013-12-05 05:36:00,50.2,43.3,29.06,WSW,248,3.1,4.3,77,0.00,,,0.00,WSDL version 420,2013-12-05 10:36:00,
2013-12-05 05:41:00,50.4,43.2,-100.00,WSW,248,2.5,3.1,76,0.00,,,0.00,WSDL version 420,2013-12-05 10:41:00,
2013-12-05 05:49:00,50.4,43.1,29.03,SW,233,2.5,4.3,76,0.00,,,0.00,WSDL version 420,2013-12-05 10:49:00,
2013-12-05 05:55:00,50.2,42.9,29.03,SW,225,2.2,3.6,76,0.00,,,0.00,WSDL version 420,2013-12-05 10:55:00,
2013-12-05 06:01:00,50.2,42.9,29.03,SW,233,2.5,4.0,76,0.00,,,0.00,WSDL version 420,2013-12-05 11:01:00,
2013-12-05 06:06:00,50.2,42.9,29.03,SW,225,2.2,4.9,76,0.00,,,0.00,WSDL version 420,2013-12-05 11:06:00,
2013-12-05 06:15:00,50.2,43.1,29.03,SSW,210,3.2,4.7,77,0.00,,,0.00,WSDL version 420,2013-12-05 11:15:00,
2013-12-05 06:21:00,50.2,43.3,-100.00,WSW,248,2.9,5.4,77,0.00,,,0.00,WSDL version 420,2013-12-05 11:21:00,
2013-12-05 06:27:00,50.2,43.3,-100.00,WSW,242,3.3,5.4,77,0.00,,,0.00,WSDL version 420,2013-12-05 11:27:00,
2013-12-05 06:32:00,50.2,43.3,29.03,SW,225,2.6,3.8,77,0.00,,,0.00,WSDL version 420,2013-12-05 11:32:00,
2013-12-05 06:38:00,50.2,43.3,29.03,SW,236,2.5,3.6,77,-99.99,,,-99.99,WSDL version 420,2013-12-05 11:38:00,
2013-12-05 06:44:00,50.2,43.3,29.03,SW,214,2.4,3.6,77,0.00,,,0.00,WSDL version 420,2013-12-05 11:44:00,
2013-12-05 06:50:00,50.2,43.3,29.03,SW,214,2.7,4.0,77,0.00,,,0.00,WSDL version 420,2013-12-05 11:50:00,
2013-12-05 06:56:00,50.2,43.5,29.00,SW,236,2.7,4.0,78,0.00,,,0.00,WSDL version 420,2013-12-05 11:56:00,
2013-12-05 07:02:00,50.2,43.6,29.00,SW,218,2.2,3.6,78,0.00,,,0.00,WSDL version 420,2013-12-05 12:02:00,
2013-12-05 07:08:00,50.4,43.8,29.03,West,259,2.7,4.0,78,0.00,,,0.00,WSDL version 420,2013-12-05 12:08:00,
2013-12-05 07:13:00,50.4,43.8,-100.00,WSW,248,2.5,4.0,78,0.00,,,0.00,WSDL version 420,2013-12-05 12:13:00,
2013-12-05 07:19:00,50.5,43.9,-100.00,WSW,248,2.4,3.6,78,0.00,,,0.00,WSDL version 420,2013-12-05 12:19:00,
2013-12-05 07:25:00,50.5,43.9,29.00,SW,233,2.5,4.7,78,0.00,,,0.00,WSDL version 420,2013-12-05 12:25:00,
2013-12-05 07:31:00,50.5,43.9,29.00,SSW,203,2.0,4.3,78,0.00,,,0.00,WSDL version 420,2013-12-05 12:31:00,
2013-12-05 07:37:00,50.7,43.9,29.03,WSW,248,1.5,3.6,78,0.00,,,0.00,WSDL version 420,2013-12-05 12:37:00,
2013-12-05 07:43:00,50.7,44.1,29.03,WSW,248,2.3,3.6,78,0.00,,,0.00,WSDL version 420,2013-12-05 12:43:00,
2013-12-05 07:49:00,50.9,44.0,29.03,WSW,242,2.1,3.6,77,0.00,,,0.00,WSDL version 420,2013-12-05 12:49:00,
2013-12-05 07:55:00,50.9,44.0,29.03,WSW,240,2.5,3.6,77,0.00,,,0.00,WSDL version 420,2013-12-05 12:55:00,
2013-12-05 08:01:00,51.0,44.0,-100.00,SSW,203,1.6,3.4,77,0.00,,,0.00,WSDL version 420,2013-12-05 13:01:00,
2013-12-05 08:07:00,51.2,44.3,-100.00,SW,236,2.1,3.4,77,0.00,,,0.00,WSDL version 420,2013-12-05 13:07:00,
2013-12-05 08:13:00,51.4,44.4,-100.00,SSW,195,2.5,2.7,77,0.00,,,0.00,WSDL version 420,2013-12-05 13:13:00,
2013-12-05 08:19:00,51.5,44.4,29.03,SW,214,2.0,3.4,76,0.00,,,0.00,WSDL version 420,2013-12-05 13:19:00,
2013-12-05 08:25:00,51.6,44.3,29.03,SW,231,1.8,4.7,76,0.00,,,0.00,WSDL version 420,2013-12-05 13:25:00,
2013-12-05 08:32:00,51.7,44.4,29.03,SW,225,2.2,4.7,76,0.00,,,0.00,WSDL version 420,2013-12-05 13:32:00,
2013-12-05 08:38:00,52.0,44.7,29.06,WSW,248,2.6,3.8,76,-99.99,,,-99.99,WSDL version 420,2013-12-05 13:38:00,
2013-12-05 09:54:00,53.7,45.3,29.03,SW,225,2.9,3.8,73,0.00,,,0.00,WSDL version 420,2013-12-05 14:54:00,
2013-12-05 10:00:00,53.9,45.5,29.03,WSW,240,2.5,3.8,73,0.00,,,0.00,WSDL version 420,2013-12-05 15:00:00,
2013-12-05 10:12:00,54.5,45.7,-100.00,WSW,239,1.9,4.9,72,0.00,,,0.00,WSDL version 420,2013-12-05 15:12:00,
2013-12-05 10:19:00,54.7,45.5,29.03,West,263,2.8,4.3,71,-99.99,,,-99.99,WSDL version 420,2013-12-05 15:19:00,
2013-12-05 10:28:00,55.4,45.8,29.03,WSW,248,3.1,5.4,70,-99.99,,,-99.99,WSDL version 420,2013-12-05 15:28:00,
2013-12-05 10:34:00,55.7,45.7,29.03,West,259,2.7,5.4,69,0.00,,,0.00,WSDL version 420,2013-12-05 15:34:00,
2013-12-05 10:43:00,56.3,45.9,29.03,WSW,248,2.9,5.4,68,-99.99,,,-99.99,WSDL version 420,2013-12-05 15:43:00,
2013-12-05 10:54:00,56.3,45.5,-100.00,WSW,240,3.1,5.4,67,0.00,,,0.00,WSDL version 420,2013-12-05 15:54:00,
2013-12-05 11:00:00,56.4,45.6,29.00,SSW,203,2.5,5.4,67,0.00,,,0.00,WSDL version 420,2013-12-05 16:00:00,
2013-12-05 11:06:00,56.7,45.6,29.03,SW,218,2.8,4.7,67,0.00,,,0.00,WSDL version 420,2013-12-05 16:06:00,
2013-12-05 11:17:00,56.9,45.7,29.03,SSW,212,2.8,3.8,66,-99.99,,,-99.99,WSDL version 420,2013-12-05 16:17:00,
2013-12-05 11:23:00,56.8,45.6,29.00,SW,233,3.4,4.9,66,0.00,,,0.00,WSDL version 420,2013-12-05 16:23:00,
2013-12-05 11:29:00,56.8,45.6,29.00,WSW,241,3.1,5.4,66,0.00,,,0.00,WSDL version 420,2013-12-05 16:29:00,
2013-12-05 11:41:00,57.2,46.0,29.03,SSW,212,3.1,5.6,66,0.00,,,0.00,WSDL version 420,2013-12-05 16:41:00,
2013-12-05 11:50:00,57.7,46.0,29.03,WSW,248,3.9,5.8,65,0.00,,,0.00,WSDL version 420,2013-12-05 16:50:00,
2013-12-05 12:00:00,57.7,45.7,29.03,WSW,248,3.8,6.0,64,0.00,,,0.00,WSDL version 420,2013-12-05 17:00:00,
2013-12-05 12:06:00,57.6,45.5,29.03,SW,229,3.8,5.6,64,0.00,,,0.00,WSDL version 420,2013-12-05 17:06:00,
2013-12-05 12:17:00,57.2,45.6,29.03,SW,225,3.9,7.6,65,0.00,,,0.00,WSDL version 420,2013-12-05 17:17:00,
2013-12-05 12:28:00,57.0,45.8,29.03,SW,221,2.6,4.7,66,0.00,,,0.00,WSDL version 420,2013-12-05 17:28:00,
2013-12-05 12:40:00,56.7,45.8,29.00,SSW,203,2.2,4.9,67,-99.99,,,-99.99,WSDL version 420,2013-12-05 17:40:00,
2013-12-05 12:46:00,56.7,46.2,29.00,SSW,211,2.2,4.9,68,0.00,,,0.00,WSDL version 420,2013-12-05 17:46:00,
2013-12-05 12:52:00,56.7,46.2,29.00,SW,234,2.9,4.5,68,0.00,,,0.00,WSDL version 420,2013-12-05 17:52:00,
2013-12-05 12:58:00,56.7,46.2,29.00,SW,216,2.4,3.6,68,0.00,,,0.00,WSDL version 420,2013-12-05 17:58:00,
2013-12-05 13:05:00,56.7,46.6,29.00,SSW,206,2.5,3.6,69,0.00,,,0.00,WSDL version 420,2013-12-05 18:05:00,
2013-12-05 13:16:00,56.7,46.6,-100.00,SW,225,2.7,3.6,69,-99.99,,,-99.99,WSDL version 420,2013-12-05 18:16:00,
2013-12-05 13:30:00,56.8,46.8,28.97,South,180,1.8,2.5,69,0.00,,,0.00,WSDL version 420,2013-12-05 18:30:00,
2013-12-05 13:39:00,56.8,46.8,29.00,SSW,212,2.1,4.0,69,0.00,,,0.00,WSDL version 420,2013-12-05 18:39:00,
2013-12-05 13:45:00,57.0,46.9,29.00,SSW,199,1.6,3.8,69,0.00,,,0.00,WSDL version 420,2013-12-05 18:45:00,
2013-12-05 13:58:00,57.2,47.1,-100.00,SW,225,0.9,3.6,69,-99.99,,,-99.99,WSDL version 420,2013-12-05 18:58:00,
2013-12-05 14:05:00,57.4,47.4,29.00,WSW,248,2.7,3.1,69,0.00,,,0.00,WSDL version 420,2013-12-05 19:05:00,
2013-12-05 14:11:00,57.7,47.5,29.00,SW,225,3.0,4.7,68,0.00,,,0.00,WSDL version 420,2013-12-05 19:11:00,
2013-12-05 14:20:00,57.9,47.4,-100.00,WSW,248,2.2,2.9,68,0.00,,,0.00,WSDL version 420,2013-12-05 19:20:00,
2013-12-05 14:26:00,58.2,47.5,29.00,SW,233,2.5,3.8,67,0.00,,,0.00,WSDL version 420,2013-12-05 19:26:00,
2013-12-05 14:34:00,58.3,47.4,-100.00,North,-999,-999.0,-999.0,67,-99.99,,,-99.99,WSDL version 420,2013-12-05 19:34:00,
2013-12-05 14:46:00,58.5,47.2,-100.00,North,-999,-999.0,-999.0,66,-99.99,,,-99.99,WSDL version 420,2013-12-05 19:46:00,
2013-12-05 14:51:00,58.3,47.0,29.00,WSW,248,3.1,3.6,66,0.00,,,0.00,WSDL version 420,2013-12-05 19:51:00,
2013-12-05 14:57:00,58.0,46.7,29.00,SW,225,3.1,4.7,66,0.00,,,0.00,WSDL version 420,2013-12-05 19:57:00,
2013-12-05 15:03:00,57.6,46.5,29.00,WSW,248,3.2,4.7,67,-99.99,,,-99.99,WSDL version 420,2013-12-05 20:03:00,
2013-12-05 15:08:00,57.4,46.9,-100.00,SW,218,2.8,4.3,68,0.00,,,0.00,WSDL version 420,2013-12-05 20:08:00,
2013-12-05 15:17:00,57.0,47.3,29.00,West,263,3.4,5.4,70,0.00,,,0.00,WSDL version 420,2013-12-05 20:17:00,
2013-12-05 15:24:00,57.0,47.3,29.00,WSW,242,3.0,5.4,70,0.00,,,0.00,WSDL version 420,2013-12-05 20:24:00,
2013-12-05 15:36:00,56.8,47.2,29.00,SW,217,2.1,5.8,70,0.00,,,0.00,WSDL version 420,2013-12-05 20:36:00,
2013-12-05 15:42:00,56.8,47.2,29.00,WSW,240,2.1,5.8,70,0.00,,,0.00,WSDL version 420,2013-12-05 20:42:00,
2013-12-05 15:50:00,56.6,46.9,29.00,SW,221,1.0,3.4,70,0.00,,,0.00,WSDL version 420,2013-12-05 20:50:00,
2013-12-05 15:56:00,56.5,47.0,29.00,SSW,200,1.9,3.6,70,0.00,,,0.00,WSDL version 420,2013-12-05 20:56:00,
2013-12-05 16:09:00,56.3,47.0,-100.00,SSW,203,2.2,2.9,71,-99.99,,,-99.99,WSDL version 420,2013-12-05 21:09:00,
2013-12-05 16:15:00,56.3,47.0,29.00,SSW,203,1.6,3.6,71,0.00,,,0.00,WSDL version 420,2013-12-05 21:15:00,
2013-12-05 16:21:00,56.1,46.9,29.00,SSW,212,1.3,3.1,71,0.00,,,0.00,WSDL version 420,2013-12-05 21:21:00,
2013-12-05 16:26:00,55.9,47.1,29.00,South,191,1.7,2.7,72,0.00,,,0.00,WSDL version 420,2013-12-05 21:26:00,
2013-12-05 16:33:00,55.9,47.1,29.00,SSW,203,1.6,2.5,72,-99.99,,,-99.99,WSDL version 420,2013-12-05 21:33:00,
2013-12-05 16:39:00,55.9,47.1,29.03,SW,214,1.0,2.5,72,0.00,,,0.00,WSDL version 420,2013-12-05 21:39:00,
2013-12-05 16:45:00,55.9,47.2,29.03,SW,231,1.3,2.5,73,-99.99,,,-99.99,WSDL version 420,2013-12-05 21:45:00,
2013-12-05 16:51:00,55.9,47.4,29.03,SW,225,0.4,2.9,73,0.00,,,0.00,WSDL version 420,2013-12-05 21:51:00,
2013-12-05 16:57:00,55.9,47.4,-100.00,WSW,239,1.2,3.1,73,0.00,,,0.00,WSDL version 420,2013-12-05 21:57:00,
2013-12-05 17:02:00,55.9,47.8,-100.00,SW,225,1.3,3.1,74,0.00,,,0.00,WSDL version 420,2013-12-05 22:02:00,
2013-12-05 17:08:00,55.9,47.8,-100.00,SW,214,0.0,2.7,74,0.00,,,0.00,WSDL version 420,2013-12-05 22:08:00,
2013-12-05 17:14:00,55.8,47.6,29.03,WSW,248,2.2,2.7,74,0.00,,,0.00,WSDL version 420,2013-12-05 22:14:00,
2013-12-05 17:23:00,55.6,47.4,-100.00,WSW,248,1.1,3.1,74,-99.99,,,-99.99,WSDL version 420,2013-12-05 22:23:00,
2013-12-05 17:30:00,55.8,47.7,29.03,SW,222,2.0,3.1,75,0.00,,,0.00,WSDL version 420,2013-12-05 22:30:00,
2013-12-05 17:39:00,55.9,48.1,29.03,SW,216,1.7,2.0,75,0.00,,,0.00,WSDL version 420,2013-12-05 22:39:00,
2013-12-05 17:48:00,55.9,48.1,-100.00,SW,231,1.1,3.1,75,0.00,,,0.00,WSDL version 420,2013-12-05 22:48:00,
2013-12-05 17:53:00,56.0,48.2,29.00,SW,225,0.0,2.0,75,0.00,,,0.00,WSDL version 420,2013-12-05 22:53:00,
2013-12-05 17:59:00,55.9,48.1,29.00,WSW,248,0.6,2.0,75,0.00,,,0.00,WSDL version 420,2013-12-05 22:59:00,
2013-12-05 18:06:00,55.9,48.1,29.00,West,263,1.0,2.0,75,-99.99,,,-99.99,WSDL version 420,2013-12-05 23:06:00,
2013-12-05 18:15:00,55.9,48.1,-100.00,WNW,302,1.2,2.9,75,0.00,,,0.00,WSDL version 420,2013-12-05 23:15:00,
2013-12-05 18:21:00,55.9,48.5,29.03,North,354,2.7,3.4,76,-99.99,,,-99.99,WSDL version 420,2013-12-05 23:21:00,
2013-12-05 18:31:00,55.9,48.1,-100.00,North,360,2.5,7.6,75,0.00,,,0.00,WSDL version 420,2013-12-05 23:31:00,
2013-12-05 18:48:00,53.2,43.3,29.03,NNE,14,4.9,5.8,69,0.00,,,0.00,WSDL version 420,2013-12-05 23:48:00,
2013-12-05 18:54:00,53.1,43.2,29.03,North,8,4.5,7.6,69,0.00,,,0.00,WSDL version 420,2013-12-05 23:54:00,
2013-12-05 19:00:00,52.6,43.1,29.03,North,6,4.6,9.8,70,0.00,,,0.00,WSDL version 420,2013-12-06 00:00:00,
2013-12-05 19:15:00,51.6,42.9,29.06,NNW,333,3.3,7.4,72,0.00,,,0.00,WSDL version 420,2013-12-06 00:15:00,
2013-12-05 19:21:00,51.3,42.9,29.06,NW,326,4.6,6.5,73,0.00,,,0.00,WSDL version 420,2013-12-06 00:21:00,
2013-12-05 19:28:00,50.7,42.4,-100.00,NNW,341,3.7,6.5,73,0.00,,,0.00,WSDL version 420,2013-12-06 00:28:00,
2013-12-05 19:34:00,50.4,41.7,29.09,NNW,344,4.9,7.8,72,0.00,,,0.00,WSDL version 420,2013-12-06 00:34:00,
2013-12-05 19:40:00,50.1,41.4,29.09,North,6,4.5,8.7,72,0.00,,,0.00,WSDL version 420,2013-12-06 00:40:00,
2013-12-05 19:46:00,49.8,40.3,29.09,North,349,3.7,7.6,68,0.00,,,0.00,WSDL version 420,2013-12-06 00:46:00,
2013-12-05 19:52:00,49.6,35.7,29.09,NW,315,4.5,6.5,59,0.00,,,0.00,WSDL version 420,2013-12-06 00:52:00,
2013-12-05 19:58:00,49.6,34.1,29.09,NW,324,5.0,8.7,54,-99.99,,,-99.99,WSDL version 420,2013-12-06 00:58:00,
2013-12-05 20:04:00,49.4,31.6,29.09,NNW,331,4.1,8.7,51,0.00,,,0.00,WSDL version 420,2013-12-06 01:04:00,
2013-12-05 20:10:00,49.3,30.8,29.09,NW,311,3.4,8.7,49,0.00,,,0.00,WSDL version 420,2013-12-06 01:10:00,
2013-12-05 20:18:00,48.9,31.1,29.09,NW,308,2.7,6.3,50,0.00,,,0.00,WSDL version 420,2013-12-06 01:18:00,
2013-12-05 20:24:00,48.7,31.7,29.12,WNW,293,1.8,4.3,52,0.00,,,0.00,WSDL version 420,2013-12-06 01:24:00,
2013-12-05 20:30:00,48.0,32.6,29.12,SSW,203,3.8,4.3,55,0.00,,,0.00,WSDL version 420,2013-12-06 01:30:00,
2013-12-05 20:35:00,47.4,33.2,29.12,SSW,203,0.0,3.1,57,-99.99,,,-99.99,WSDL version 420,2013-12-06 01:35:00,
2013-12-05 20:41:00,46.9,33.4,29.12,NW,326,1.5,2.7,60,0.00,,,0.00,WSDL version 420,2013-12-06 01:41:00,
2013-12-05 20:46:00,46.5,33.9,29.12,South,184,1.0,2.7,62,0.00,,,0.00,WSDL version 420,2013-12-06 01:46:00,
2013-12-05 20:55:00,45.9,34.0,29.15,SW,225,0.7,2.7,63,0.00,,,0.00,WSDL version 420,2013-12-06 01:55:00,
2013-12-05 21:01:00,45.7,34.2,29.15,SSW,203,1.2,2.5,66,0.00,,,0.00,WSDL version 420,2013-12-06 02:01:00,
2013-12-05 21:07:00,45.5,35.2,-100.00,SSE,158,1.2,2.5,67,0.00,,,0.00,WSDL version 420,2013-12-06 02:07:00,
2013-12-05 21:13:00,45.4,35.6,-100.00,SSW,203,0.6,2.0,68,0.00,,,0.00,WSDL version 420,2013-12-06 02:13:00,
2013-12-05 21:19:00,45.2,35.5,-100.00,SSW,203,0.0,2.0,69,0.00,,,0.00,WSDL version 420,2013-12-06 02:19:00,
2013-12-05 21:24:00,45.0,35.8,29.15,WSW,248,0.0,0.0,70,0.00,,,0.00,WSDL version 420,2013-12-06 02:24:00,
2013-12-05 21:30:00,44.8,35.7,29.15,WSW,248,0.0,0.0,71,0.00,,,0.00,WSDL version 420,2013-12-06 02:30:00,
2013-12-05 21:36:00,44.7,35.8,29.15,West,259,0.0,1.6,71,0.00,,,0.00,WSDL version 420,2013-12-06 02:36:00,
2013-12-05 21:42:00,44.6,36.1,29.15,SSW,203,0.0,0.0,72,0.00,,,0.00,WSDL version 420,2013-12-06 02:42:00,
2013-12-05 21:48:00,44.6,36.7,29.15,SSW,203,0.0,0.0,73,0.00,,,0.00,WSDL version 420,2013-12-06 02:48:00,
2013-12-05 21:54:00,44.6,36.5,29.15,SW,214,0.0,0.0,73,0.00,,,0.00,WSDL version 420,2013-12-06 02:54:00,
2013-12-05 22:00:00,44.4,36.7,29.15,SW,230,1.1,2.0,74,-99.99,,,-99.99,WSDL version 420,2013-12-06 03:00:00,
2013-12-05 22:07:00,44.4,36.9,29.12,WSW,248,0.2,2.0,75,0.00,,,0.00,WSDL version 420,2013-12-06 03:07:00,
2013-12-05 22:13:00,44.2,36.8,29.12,SW,221,0.0,0.9,75,0.00,,,0.00,WSDL version 420,2013-12-06 03:13:00,
2013-12-05 22:20:00,44.1,37.0,-100.00,SSW,203,1.0,2.5,76,0.00,,,0.00,WSDL version 420,2013-12-06 03:20:00,
2013-12-05 22:26:00,44.0,36.9,29.15,SSW,206,0.0,2.5,76,0.00,,,0.00,WSDL version 420,2013-12-06 03:26:00,
2013-12-05 22:32:00,43.8,36.8,29.15,SW,225,0.0,0.0,77,0.00,,,0.00,WSDL version 420,2013-12-06 03:32:00,
2013-12-05 22:38:00,43.7,37.0,29.15,SW,229,0.0,1.6,77,0.00,,,0.00,WSDL version 420,2013-12-06 03:38:00,
2013-12-05 22:44:00,43.5,37.0,29.15,WSW,248,0.0,1.6,78,0.00,,,0.00,WSDL version 420,2013-12-06 03:44:00,
2013-12-05 22:50:00,43.4,37.4,29.15,SW,229,0.4,1.1,79,0.04,,,0.04,WSDL version 420,2013-12-06 03:50:00,
2013-12-05 22:56:00,43.3,37.7,29.15,West,263,0.0,1.1,81,0.04,,,0.04,WSDL version 420,2013-12-06 03:56:00,
2013-12-05 23:04:00,43.3,37.9,29.15,SW,225,0.0,0.0,81,0.04,,,0.04,WSDL version 420,2013-12-06 04:04:00,
2013-12-05 23:10:00,43.2,37.4,29.18,SW,225,0.0,0.0,80,-99.99,,,-99.99,WSDL version 420,2013-12-06 04:10:00,
2013-12-05 23:16:00,43.0,37.8,29.18,WNW,297,0.0,0.0,82,-99.99,,,-99.99,WSDL version 420,2013-12-06 04:16:00,
2013-12-05 23:25:00,43.2,38.8,29.12,ESE,113,0.0,0.0,84,0.04,,,0.04,WSDL version 420,2013-12-06 04:25:00,
2013-12-05 23:31:00,43.0,38.3,29.12,SSE,158,0.0,0.0,83,-99.99,,,-99.99,WSDL version 420,2013-12-06 04:31:00,
2013-12-05 23:36:00,43.0,38.5,29.12,SE,135,0.0,0.0,84,0.04,,,0.04,WSDL version 420,2013-12-06 04:36:00,
2013-12-05 23:42:00,43.0,38.6,29.12,ESE,113,0.0,0.0,84,0.04,,,0.04,WSDL version 420,2013-12-06 04:42:00,
2013-12-05 23:48:00,43.0,38.6,29.12,ENE,68,0.0,0.0,84,0.04,,,0.04,WSDL version 420,2013-12-06 04:48:00,
2013-12-05 23:54:00,42.9,38.6,29.12,NNW,330,0.0,0.0,84,0.00,,,0.04,WSDL version 420,2013-12-06 04:54:00,